createdAt,value
2023-03-26T00:01:25.118Z,98418.81
2023-03-26T00:03:57.719Z,98415.38
2023-03-26T00:06:36.863Z,98411.91
2023-03-26T00:09:05.427Z,98413.56
2023-03-26T00:11:32.216Z,98416.13
2023-03-26T00:13:59.199Z,98416.97
2023-03-26T00:16:29.976Z,98421.25
2023-03-26T00:18:57.900Z,98416.94
2023-03-26T00:21:29.342Z,98411.75
2023-03-26T00:23:59.785Z,98411.78
2023-03-26T00:26:29.765Z,98413.44
2023-03-26T00:28:57.809Z,98411.72
2023-03-26T00:31:24.790Z,98403.09
2023-03-26T00:33:56.023Z,98405.69
2023-03-26T00:36:28.363Z,98403.09
2023-03-26T00:38:55.587Z,98405.69
2023-03-26T00:41:31.092Z,98396.13
2023-03-26T00:43:59.546Z,98394.38
2023-03-26T00:46:29.152Z,98392.56
2023-03-26T00:48:59.918Z,98388.22
2023-03-26T00:51:28.201Z,98389.88
2023-03-26T00:53:55.893Z,98383.81
2023-03-26T00:56:22.879Z,98381.22
2023-03-26T00:58:50.369Z,98382.91
2023-03-26T01:01:28.654Z,98376.91
2023-03-26T01:04:08.718Z,98380.28
2023-03-26T01:06:41.491Z,98376.00
2023-03-26T01:09:15.915Z,98376.91
2023-03-26T01:11:43.203Z,98376.03
2023-03-26T01:14:30.374Z,98377.88
2023-03-26T01:17:02.700Z,98373.59
2023-03-26T01:19:58.860Z,98368.41
2023-03-26T01:22:27.151Z,98369.28
2023-03-26T01:24:56.741Z,98374.44
2023-03-26T01:27:34.288Z,98368.41
2023-03-26T01:30:42.416Z,98365.84
2023-03-26T01:33:36.657Z,98373.59
2023-03-26T01:36:17.880Z,98370.13
2023-03-26T01:39:04.021Z,98365.84
2023-03-26T01:41:51.747Z,98359.84
2023-03-26T01:44:50.323Z,98362.41
2023-03-26T01:47:17.933Z,98347.72
2023-03-26T01:49:44.781Z,98344.25
2023-03-26T01:52:25.170Z,98345.97
2023-03-26T01:54:54.497Z,98340.75
2023-03-26T01:57:50.415Z,98340.72
2023-03-26T02:00:34.216Z,98337.19
2023-03-26T02:03:35.056Z,98343.19
2023-03-26T02:06:11.382Z,98330.19
2023-03-26T02:08:47.031Z,98327.53
2023-03-26T02:11:16.504Z,98326.66
2023-03-26T02:13:45.435Z,98323.19
2023-03-26T02:16:16.507Z,98324.84
2023-03-26T02:18:45.272Z,98322.19
2023-03-26T02:21:20.123Z,98323.91
2023-03-26T02:23:50.836Z,98323.00
2023-03-26T02:26:19.873Z,98316.19
2023-03-26T02:28:58.959Z,98322.19
2023-03-26T02:31:30.323Z,98322.19
2023-03-26T02:33:57.453Z,98323.03
2023-03-26T02:36:29.988Z,98329.03
2023-03-26T02:39:00.561Z,98322.94
2023-03-26T02:41:30.453Z,98320.38
2023-03-26T02:44:01.352Z,98313.41
2023-03-26T02:46:48.166Z,98307.44
2023-03-26T02:49:35.151Z,98303.16
2023-03-26T02:52:06.562Z,98306.56
2023-03-26T02:54:35.711Z,98305.72
2023-03-26T02:57:20.297Z,98296.22
2023-03-26T03:00:09.163Z,98300.56
2023-03-26T03:02:48.443Z,98301.41
2023-03-26T03:05:38.134Z,98303.00
2023-03-26T03:08:19.402Z,98302.94
2023-03-26T03:11:11.921Z,98292.66
2023-03-26T03:13:45.582Z,98295.19
2023-03-26T03:16:16.587Z,98293.41
2023-03-26T03:18:43.735Z,98288.22
2023-03-26T03:21:10.965Z,98285.78
2023-03-26T03:23:37.857Z,98284.09
2023-03-26T03:26:16.662Z,98282.44
2023-03-26T03:28:50.804Z,98275.53
2023-03-26T03:31:18.179Z,98278.16
2023-03-26T03:33:46.515Z,98283.34
2023-03-26T03:36:22.066Z,98278.16
2023-03-26T03:39:02.460Z,98271.22
2023-03-26T03:41:30.354Z,98278.91
2023-03-26T03:43:59.925Z,98280.59
2023-03-26T03:46:30.978Z,98280.56
2023-03-26T03:48:58.193Z,98279.66
2023-03-26T03:51:29.885Z,98278.72
2023-03-26T03:53:59.892Z,98282.94
2023-03-26T03:56:47.368Z,98276.94
2023-03-26T03:59:34.227Z,98282.09
2023-03-26T04:02:04.472Z,98279.50
2023-03-26T04:04:38.199Z,98273.44
2023-03-26T04:07:08.641Z,98265.72
2023-03-26T04:09:56.192Z,98269.97
2023-03-26T04:12:24.928Z,98275.13
2023-03-26T04:14:58.569Z,98270.84
2023-03-26T04:17:26.020Z,98269.13
2023-03-26T04:19:55.479Z,98272.59
2023-03-26T04:22:36.577Z,98266.53
2023-03-26T04:25:07.692Z,98266.50
2023-03-26T04:27:44.529Z,98267.31
2023-03-26T04:30:23.306Z,98261.22
2023-03-26T04:33:15.368Z,98266.41
2023-03-26T04:35:46.017Z,98263.78
2023-03-26T04:38:16.842Z,98259.41
2023-03-26T04:40:49.768Z,98259.41
2023-03-26T04:43:36.590Z,98262.84
2023-03-26T04:46:23.649Z,98262.81
2023-03-26T04:49:01.237Z,98266.25
2023-03-26T04:51:38.252Z,98255.97
2023-03-26T04:54:14.515Z,98257.75
2023-03-26T04:57:00.209Z,98257.81
2023-03-26T04:59:37.200Z,98262.97
2023-03-26T05:02:09.680Z,98255.22
2023-03-26T05:04:48.533Z,98256.91
2023-03-26T05:07:22.455Z,98263.88
2023-03-26T05:09:52.817Z,98258.69
2023-03-26T05:12:31.184Z,98257.84
2023-03-26T05:15:04.386Z,98254.47
2023-03-26T05:17:51.646Z,98254.56
2023-03-26T05:20:38.471Z,98258.09
2023-03-26T05:23:08.106Z,98259.00
2023-03-26T05:25:37.944Z,98264.22
2023-03-26T05:28:12.204Z,98255.72
2023-03-26T05:30:48.097Z,98261.84
2023-03-26T05:33:16.439Z,98265.31
2023-03-26T05:36:07.179Z,98260.97
2023-03-26T05:38:34.228Z,98261.72
2023-03-26T05:41:08.160Z,98266.88
2023-03-26T05:43:37.312Z,98265.13
2023-03-26T05:46:11.936Z,98268.50
2023-03-26T05:48:39.315Z,98269.31
2023-03-26T05:51:07.042Z,98263.94
2023-03-26T05:53:34.526Z,98275.81
2023-03-26T05:56:21.273Z,98263.50
2023-03-26T05:59:08.159Z,98269.34
2023-03-26T06:01:54.915Z,98260.56
2023-03-26T06:04:42.600Z,98263.94
2023-03-26T06:07:29.584Z,98262.16
2023-03-26T06:10:17.942Z,98267.31
2023-03-26T06:12:46.227Z,98263.78
2023-03-26T06:15:13.325Z,98272.44
2023-03-26T06:18:00.129Z,98273.13
2023-03-26T06:20:47.325Z,98268.75
2023-03-26T06:23:25.354Z,98268.75
2023-03-26T06:26:06.605Z,98264.34
2023-03-26T06:28:53.356Z,98268.63
2023-03-26T06:31:41.309Z,98269.50
2023-03-26T06:34:16.507Z,98273.09
2023-03-26T06:36:43.620Z,98273.25
2023-03-26T06:39:10.482Z,98278.59
2023-03-26T06:41:45.720Z,98272.50
2023-03-26T06:44:23.311Z,98281.81
2023-03-26T06:47:10.446Z,98280.75
2023-03-26T06:49:57.246Z,98270.44
2023-03-26T06:52:35.178Z,98275.69
2023-03-26T06:55:22.611Z,98280.81
2023-03-26T06:58:11.668Z,98279.91
2023-03-26T07:00:58.655Z,98281.53
2023-03-26T07:03:45.993Z,98281.53
2023-03-26T07:06:32.955Z,98274.59
2023-03-26T07:09:19.717Z,98272.81
2023-03-26T07:12:06.749Z,98281.31
2023-03-26T07:14:53.635Z,98275.97
2023-03-26T07:17:40.647Z,98278.44
2023-03-26T07:20:16.847Z,98282.50
2023-03-26T07:22:45.366Z,98283.19
2023-03-26T07:25:29.233Z,98280.53
2023-03-26T07:29:04.057Z,98287.63
2023-03-26T07:32:01.431Z,98294.22
2023-03-26T07:34:47.508Z,98282.38
2023-03-26T07:40:51.269Z,98293.81
2023-03-26T07:44:17.838Z,98298.00
2023-03-26T07:47:22.327Z,98302.31
2023-03-26T07:50:16.523Z,98296.28
2023-03-26T07:53:05.428Z,98298.03
2023-03-26T07:55:54.225Z,98299.91
2023-03-26T07:59:07.169Z,98298.63
2023-03-26T08:02:14.393Z,98307.69
2023-03-26T08:04:58.410Z,98301.47
2023-03-26T08:08:25.513Z,98302.91
2023-03-26T08:11:50.374Z,98302.72
2023-03-26T08:14:39.539Z,98307.78
2023-03-26T08:17:23.994Z,98299.28
2023-03-26T08:19:58.156Z,98304.63
2023-03-26T08:22:31.931Z,98309.81
2023-03-26T08:25:17.921Z,98310.00
2023-03-26T08:28:00.033Z,98312.72
2023-03-26T08:30:27.926Z,98312.81
2023-03-26T08:32:57.451Z,98319.69
2023-03-26T08:35:25.591Z,98313.88
2023-03-26T08:37:53.246Z,98310.56
2023-03-26T08:40:40.045Z,98312.75
2023-03-26T08:43:24.537Z,98314.13
2023-03-26T08:46:19.829Z,98320.66
2023-03-26T08:49:27.868Z,98311.84
2023-03-26T08:52:28.167Z,98323.78
2023-03-26T08:55:15.307Z,98324.81
2023-03-26T08:58:22.540Z,98325.78
2023-03-26T09:01:27.170Z,98321.53
2023-03-26T09:04:21.611Z,98324.31
2023-03-26T09:07:28.274Z,98319.44
2023-03-26T09:10:26.235Z,98323.00
2023-03-26T09:13:32.893Z,98332.06
2023-03-26T09:16:39.734Z,98336.53
2023-03-26T09:19:46.525Z,98329.22
2023-03-26T09:22:29.317Z,98323.00
2023-03-26T09:25:39.867Z,98334.47
2023-03-26T09:28:46.960Z,98335.63
2023-03-26T09:31:58.065Z,98338.38
2023-03-26T09:34:34.717Z,98335.03
2023-03-26T09:37:56.801Z,98338.34
2023-03-26T09:40:42.537Z,98332.97
2023-03-26T09:43:49.396Z,98343.47
2023-03-26T09:46:47.370Z,98349.19
2023-03-26T09:49:36.684Z,98340.75
2023-03-26T09:52:20.672Z,98347.13
2023-03-26T09:55:22.897Z,98342.91
2023-03-26T09:58:21.451Z,98361.66
2023-03-26T10:01:15.910Z,98362.06
2023-03-26T10:04:17.298Z,98356.50
2023-03-26T10:07:24.160Z,98361.75
2023-03-26T10:10:30.961Z,98366.81
2023-03-26T10:13:26.716Z,98368.44
2023-03-26T10:16:25.875Z,98360.53
2023-03-26T10:19:07.945Z,98352.16
2023-03-26T10:21:47.991Z,98357.34
2023-03-26T10:24:42.891Z,98360.59
2023-03-26T10:27:49.589Z,98360.16
2023-03-26T10:30:36.520Z,98366.75
2023-03-26T10:33:28.160Z,98349.63
2023-03-26T10:36:23.280Z,98350.06
2023-03-26T10:39:36.727Z,98358.16
2023-03-26T10:42:36.257Z,98354.53
2023-03-26T10:45:14.718Z,98357.94
2023-03-26T10:48:21.646Z,98360.38
2023-03-26T10:51:24.938Z,98363.81
2023-03-26T10:53:56.366Z,98376.75
2023-03-26T10:56:46.782Z,98375.84
2023-03-26T10:59:15.003Z,98378.88
2023-03-26T11:01:50.385Z,98383.94
2023-03-26T11:04:47.173Z,98379.22
2023-03-26T11:07:39.551Z,98387.16
2023-03-26T11:10:16.897Z,98393.47
2023-03-26T11:12:58.143Z,98392.63
2023-03-26T11:15:30.403Z,98390.94
2023-03-26T11:18:24.302Z,98390.09
2023-03-26T11:21:18.668Z,98389.13
2023-03-26T11:24:21.558Z,98386.78
2023-03-26T11:26:58.337Z,98385.84
2023-03-26T11:30:00.602Z,98381.78
2023-03-26T11:32:40.530Z,98386.63
2023-03-26T11:35:40.718Z,98385.97
2023-03-26T11:38:20.513Z,98384.13
2023-03-26T11:40:51.385Z,98378.50
2023-03-26T11:43:36.937Z,98375.47
2023-03-26T11:46:07.850Z,98374.22
2023-03-26T11:48:44.582Z,98373.63
2023-03-26T11:51:16.834Z,98388.69
2023-03-26T11:53:46.798Z,98377.69
2023-03-26T11:56:31.146Z,98389.81
2023-03-26T11:59:18.450Z,98382.66
2023-03-26T12:02:17.190Z,98392.72
2023-03-26T12:04:45.909Z,98395.44
2023-03-26T12:07:24.393Z,98402.38
2023-03-26T12:09:56.818Z,98381.47
2023-03-26T12:12:30.667Z,98389.84
2023-03-26T12:14:59.726Z,98384.34
2023-03-26T12:17:37.812Z,98390.19
2023-03-26T12:20:33.638Z,98396.59
2023-03-26T12:23:02.548Z,98390.66
2023-03-26T12:25:33.256Z,98391.16
2023-03-26T12:28:18.531Z,98403.00
2023-03-26T12:31:05.501Z,98397.13
2023-03-26T12:33:34.845Z,98389.34
2023-03-26T12:36:24.767Z,98411.91
2023-03-26T12:39:16.682Z,98412.28
2023-03-26T12:44:43.721Z,98401.94
2023-03-26T12:44:53.798Z,98410.91
2023-03-26T12:48:00.604Z,98404.91
2023-03-26T12:50:14.641Z,98415.72
2023-03-26T12:53:15.974Z,98416.75
2023-03-26T12:55:52.004Z,98412.78
2023-03-26T12:58:58.775Z,98420.88
2023-03-26T13:01:47.555Z,98425.59
2023-03-26T13:05:05.025Z,98432.06
2023-03-26T13:08:03.725Z,98426.50
2023-03-26T13:10:56.377Z,98450.31
2023-03-26T13:13:50.676Z,98443.16
2023-03-26T13:16:47.804Z,98442.66
2023-03-26T13:19:23.259Z,98437.31
2023-03-26T13:22:07.441Z,98437.34
2023-03-26T13:24:58.851Z,98447.91
2023-03-26T13:28:00.394Z,98448.91
2023-03-26T13:31:07.307Z,98448.13
2023-03-26T13:33:41.092Z,98445.31
2023-03-26T13:36:31.641Z,98438.38
2023-03-26T13:39:21.082Z,98439.00
2023-03-26T13:42:23.406Z,98430.41
2023-03-26T13:45:30.105Z,98436.47
2023-03-26T13:47:59.253Z,98435.53
2023-03-26T13:50:31.468Z,98433.88
2023-03-26T13:53:07.112Z,98429.53
2023-03-26T13:55:44.076Z,98437.03
2023-03-26T13:58:24.544Z,98435.16
2023-03-26T14:01:07.502Z,98441.00
2023-03-26T14:03:48.999Z,98439.66
2023-03-26T14:06:57.681Z,98432.47
2023-03-26T14:09:52.322Z,98436.03
2023-03-26T14:12:49.553Z,98436.63
2023-03-26T14:15:29.674Z,98435.25
2023-03-26T14:18:32.771Z,98439.47
2023-03-26T14:21:29.152Z,98432.28
2023-03-26T14:24:35.852Z,98428.84
2023-03-26T14:27:36.992Z,98431.75
2023-03-26T14:30:33.614Z,98422.28
2023-03-26T14:33:27.171Z,98436.91
2023-03-26T14:36:11.481Z,98429.69
2023-03-26T14:39:01.381Z,98432.66
2023-03-26T14:41:50.504Z,98422.84
2023-03-26T14:44:57.151Z,98418.75
2023-03-26T14:47:24.980Z,98411.53
2023-03-26T14:50:35.982Z,98420.78
2023-03-26T14:53:10.417Z,98422.34
2023-03-26T14:56:17.109Z,98426.13
2023-03-26T14:59:23.783Z,98422.91
2023-03-26T15:02:30.911Z,98428.03
2023-03-26T15:05:27.388Z,98413.44
2023-03-26T15:08:34.404Z,98424.75
2023-03-26T15:11:22.743Z,98446.41
2023-03-26T15:14:20.969Z,98438.63
2023-03-26T15:17:16.581Z,98437.81
2023-03-26T15:20:26.106Z,98450.78
2023-03-26T15:23:24.111Z,98448.34
2023-03-26T15:26:31.087Z,98455.63
2023-03-26T15:29:08.615Z,98451.50
2023-03-26T15:32:07.630Z,98456.78
2023-03-26T15:35:14.969Z,98470.78
2023-03-26T15:38:20.901Z,98455.28
2023-03-26T15:41:17.665Z,98467.50
2023-03-26T15:44:22.527Z,98466.00
2023-03-26T15:47:17.511Z,98470.41
2023-03-26T15:49:55.506Z,98475.16
2023-03-26T15:52:28.437Z,98481.38
2023-03-26T15:55:22.908Z,98500.59
2023-03-26T15:58:18.554Z,98496.78
2023-03-26T16:00:56.617Z,98516.09
2023-03-26T16:03:41.855Z,98511.94
2023-03-26T16:06:30.971Z,98505.97
2023-03-26T16:09:29.075Z,98506.13
2023-03-26T16:11:58.304Z,98507.00
2023-03-26T16:14:46.949Z,98513.94
2023-03-26T16:17:17.625Z,98508.03
2023-03-26T16:20:14.988Z,98533.03
2023-03-26T16:22:56.197Z,98526.19
2023-03-26T16:25:33.444Z,98521.13
2023-03-26T16:28:28.358Z,98518.56
2023-03-26T16:31:37.321Z,98523.00
2023-03-26T16:34:26.464Z,98509.25
2023-03-26T16:36:54.898Z,98515.28
2023-03-26T16:39:24.945Z,98508.56
2023-03-26T16:41:56.640Z,98515.44
2023-03-26T16:44:44.222Z,98526.66
2023-03-26T16:47:25.541Z,98527.53
2023-03-26T16:50:16.941Z,98543.13
2023-03-26T16:53:09.246Z,98546.66
2023-03-26T16:55:48.214Z,98545.88
2023-03-26T16:58:33.625Z,98550.19
2023-03-26T17:01:43.623Z,98554.53
2023-03-26T17:04:17.367Z,98540.00
2023-03-26T17:07:16.288Z,98559.13
2023-03-26T17:09:55.677Z,98558.47
2023-03-26T17:12:44.023Z,98559.53
2023-03-26T17:15:42.922Z,98565.69
2023-03-26T17:18:42.732Z,98582.13
2023-03-26T17:21:16.134Z,98581.41
2023-03-26T17:24:15.188Z,98578.00
2023-03-26T17:27:00.622Z,98582.41
2023-03-26T17:30:07.560Z,98585.91
2023-03-26T17:33:14.206Z,98579.97
2023-03-26T17:35:45.664Z,98574.88
2023-03-26T17:38:52.407Z,98580.94
2023-03-26T17:41:49.053Z,98589.56
2023-03-26T17:44:37.350Z,98583.59
2023-03-26T17:47:07.200Z,98577.59
2023-03-26T17:49:35.443Z,98576.78
2023-03-26T17:52:12.021Z,98589.63
2023-03-26T17:54:44.442Z,98588.81
2023-03-26T17:57:20.642Z,98582.81
2023-03-26T17:59:51.940Z,98583.66
2023-03-26T18:02:24.014Z,98584.50
2023-03-26T18:04:53.507Z,98585.34
2023-03-26T18:07:57.024Z,98587.97
2023-03-26T18:10:56.087Z,98582.81
2023-03-26T18:13:49.568Z,98583.63
2023-03-26T18:16:24.831Z,98596.47
2023-03-26T18:18:55.477Z,98600.78
2023-03-26T18:21:43.668Z,98588.75
2023-03-26T18:24:15.703Z,98592.19
2023-03-26T18:26:49.690Z,98594.72
2023-03-26T18:29:26.235Z,98596.44
2023-03-26T18:31:57.763Z,98591.38
2023-03-26T18:34:26.183Z,98591.38
2023-03-26T18:37:17.767Z,98590.53
2023-03-26T18:40:02.157Z,98589.66
2023-03-26T18:42:30.805Z,98587.97
2023-03-26T18:44:59.901Z,98574.25
2023-03-26T18:47:29.627Z,98583.69
2023-03-26T18:49:57.440Z,98577.72
2023-03-26T18:52:24.540Z,98579.44
2023-03-26T18:54:56.467Z,98576.84
2023-03-26T18:57:27.211Z,98572.59
2023-03-26T19:00:09.467Z,98566.59
2023-03-26T19:02:39.093Z,98576.91
2023-03-26T19:05:15.440Z,98582.06
2023-03-26T19:07:44.337Z,98570.94
2023-03-26T19:10:21.613Z,98582.06
2023-03-26T19:12:57.204Z,98570.91
2023-03-26T19:15:28.259Z,98566.56
2023-03-26T19:18:14.850Z,98574.25
2023-03-26T19:20:59.176Z,98572.47
2023-03-26T19:23:33.379Z,98577.59
2023-03-26T19:26:07.469Z,98562.97
2023-03-26T19:28:41.464Z,98568.97
2023-03-26T19:31:21.637Z,98565.50
2023-03-26T19:33:56.140Z,98558.59
2023-03-26T19:36:32.528Z,98555.09
2023-03-26T19:39:24.177Z,98559.34
2023-03-26T19:41:59.399Z,98557.63
2023-03-26T19:44:29.074Z,98552.44
2023-03-26T19:47:04.372Z,98549.00
2023-03-26T19:49:34.038Z,98549.81
2023-03-26T19:52:22.086Z,98543.78
2023-03-26T19:55:24.647Z,98544.59
2023-03-26T19:57:54.104Z,98534.25
2023-03-26T20:00:22.022Z,98532.53
2023-03-26T20:02:49.159Z,98533.38
2023-03-26T20:05:27.802Z,98533.41
2023-03-26T20:07:57.266Z,98529.09
2023-03-26T20:10:24.770Z,98527.38
2023-03-26T20:12:51.969Z,98533.38
2023-03-26T20:15:23.131Z,98530.81
2023-03-26T20:17:52.585Z,98533.38
2023-03-26T20:20:19.615Z,98525.69
2023-03-26T20:22:47.371Z,98523.13
2023-03-26T20:25:20.482Z,98523.16
2023-03-26T20:27:47.533Z,98524.88
2023-03-26T20:32:45.624Z,98518.03
2023-03-26T20:35:37.714Z,98514.63
2023-03-26T20:38:06.226Z,98508.69
2023-03-26T20:40:33.817Z,98519.03
2023-03-26T20:43:01.935Z,98513.91
2023-03-26T20:45:29.089Z,98523.34
2023-03-26T20:47:55.973Z,98524.19
2023-03-26T20:50:23.364Z,98514.72
2023-03-26T20:52:50.665Z,98513.88
2023-03-26T20:55:21.836Z,98514.75
2023-03-26T20:57:49.113Z,98511.38
2023-03-26T21:00:22.697Z,98515.69
2023-03-26T21:02:53.968Z,98512.31
2023-03-26T21:05:24.597Z,98519.22
2023-03-26T21:07:53.396Z,98520.13
2023-03-26T21:10:21.170Z,98520.97
2023-03-26T21:12:58.346Z,98519.25
2023-03-26T21:15:26.505Z,98517.53
2023-03-26T21:17:55.002Z,98520.13
2023-03-26T21:20:23.609Z,98520.09
2023-03-26T21:23:16.248Z,98522.59
2023-03-26T21:26:07.271Z,98522.59
2023-03-26T21:28:47.281Z,98520.81
2023-03-26T21:31:20.277Z,98515.63
2023-03-26T21:33:49.376Z,98518.19
2023-03-26T21:36:18.279Z,98523.28
2023-03-26T21:38:46.016Z,98519.84
2023-03-26T21:41:31.461Z,98521.53
2023-03-26T21:43:59.890Z,98533.53
2023-03-26T21:46:27.163Z,98529.22
2023-03-26T21:48:54.393Z,98530.13
2023-03-26T21:51:21.556Z,98525.88
2023-03-26T21:53:49.032Z,98527.66
2023-03-26T21:56:50.481Z,98538.03
2023-03-26T21:59:51.406Z,98545.75
2023-03-26T22:02:44.341Z,98548.34
2023-03-26T22:05:26.021Z,98552.69
2023-03-26T22:08:04.716Z,98548.38
2023-03-26T22:10:32.123Z,98542.41
2023-03-26T22:12:59.727Z,98539.84
2023-03-26T22:15:30.534Z,98546.72
2023-03-26T22:18:02.200Z,98547.63
2023-03-26T22:20:29.617Z,98553.66
2023-03-26T22:22:56.833Z,98557.97
2023-03-26T22:25:24.144Z,98557.13
2023-03-26T22:27:51.832Z,98561.41
2023-03-26T22:30:20.914Z,98565.72
2023-03-26T22:32:48.788Z,98563.97
2023-03-26T22:35:16.275Z,98565.72
2023-03-26T22:37:43.215Z,98568.31
2023-03-26T22:40:12.982Z,98576.00
2023-03-26T22:42:40.571Z,98577.69
2023-03-26T22:45:09.257Z,98578.56
2023-03-26T22:47:36.275Z,98578.53
2023-03-26T22:50:06.075Z,98576.81
2023-03-26T22:52:34.001Z,98573.41
2023-03-26T22:55:00.851Z,98569.13
2023-03-26T22:57:27.977Z,98570.81
2023-03-26T22:59:54.770Z,98569.97
2023-03-26T23:02:22.092Z,98573.41
2023-03-26T23:04:49.059Z,98573.41
2023-03-26T23:07:15.951Z,98574.25
2023-03-26T23:09:42.748Z,98572.56
2023-03-26T23:12:09.691Z,98579.44
2023-03-26T23:14:36.461Z,98586.31
2023-03-26T23:17:03.740Z,98577.75
2023-03-26T23:19:30.647Z,98582.06
2023-03-26T23:21:57.623Z,98587.22
2023-03-26T23:24:26.585Z,98590.69
2023-03-26T23:26:53.484Z,98595.00
2023-03-26T23:29:20.307Z,98588.13
2023-03-26T23:31:47.691Z,98576.13
2023-03-26T23:34:16.355Z,98584.72
2023-03-26T23:36:44.710Z,98589.88
2023-03-26T23:39:20.641Z,98589.03
2023-03-26T23:41:48.119Z,98595.03
2023-03-26T23:44:17.042Z,98592.47
2023-03-26T23:46:44.271Z,98586.47
2023-03-26T23:49:12.158Z,98585.63
2023-03-26T23:51:39.044Z,98584.78
2023-03-26T23:54:06.693Z,98592.50
2023-03-26T23:56:33.504Z,98582.22
2023-03-26T23:59:00.743Z,98583.13
